createdAt,value
2022-11-19T00:01:12.989Z,0.26
2022-11-19T00:03:42.330Z,0.27
2022-11-19T00:06:14.628Z,0.30
2022-11-19T00:08:43.776Z,0.32
2022-11-19T00:11:18.692Z,0.37
2022-11-19T00:17:27.977Z,0.31
2022-11-19T00:19:58.394Z,0.35
2022-11-19T00:22:27.799Z,0.36
2022-11-19T00:24:57.900Z,0.35
2022-11-19T00:27:26.769Z,0.35
2022-11-19T00:29:55.551Z,0.33
2022-11-19T00:32:24.554Z,0.35
2022-11-19T00:34:53.747Z,0.41
2022-11-19T00:37:22.579Z,0.42
2022-11-19T00:39:53.433Z,0.41
2022-11-19T00:42:22.883Z,0.41
2022-11-19T00:44:52.528Z,0.42
2022-11-19T00:47:21.846Z,0.44
2022-11-19T00:49:52.002Z,0.46
2022-11-19T00:52:55.143Z,0.46
2022-11-19T00:55:24.509Z,0.46
2022-11-19T00:57:54.735Z,0.48
2022-11-19T01:00:23.923Z,0.48
2022-11-19T01:02:54.282Z,0.52
2022-11-19T01:05:23.345Z,0.56
2022-11-19T01:07:54.099Z,0.59
2022-11-19T01:10:23.463Z,0.60
2022-11-19T01:13:10.631Z,0.60
2022-11-19T01:15:54.140Z,0.62
2022-11-19T01:18:22.965Z,0.66
2022-11-19T01:20:53.543Z,0.69
2022-11-19T01:23:23.503Z,0.67
2022-11-19T01:25:53.066Z,0.64
2022-11-19T01:28:23.638Z,0.67
2022-11-19T01:30:53.235Z,0.66
2022-11-19T01:33:24.477Z,0.66
2022-11-19T01:36:02.033Z,0.69
2022-11-19T01:38:33.062Z,0.71
2022-11-19T01:41:02.358Z,0.74
2022-11-19T01:43:50.954Z,0.73
2022-11-19T01:46:24.219Z,0.75
2022-11-19T01:49:04.384Z,0.78
2022-11-19T01:52:00.745Z,0.80
2022-11-19T01:54:40.929Z,0.80
2022-11-19T01:57:14.100Z,0.82
2022-11-19T01:59:44.253Z,0.84
2022-11-19T02:02:13.721Z,0.85
2022-11-19T02:04:43.236Z,0.87
2022-11-19T02:07:13.817Z,0.85
2022-11-19T02:09:44.874Z,0.83
2022-11-19T02:12:28.710Z,0.81
2022-11-19T02:15:13.969Z,0.81
2022-11-19T02:18:21.525Z,0.81
2022-11-19T02:21:37.409Z,0.81
2022-11-19T02:24:53.318Z,0.81
2022-11-19T02:27:51.613Z,0.85
2022-11-19T02:30:20.147Z,0.83
2022-11-19T02:33:06.885Z,0.84
2022-11-19T02:36:00.817Z,0.84
2022-11-19T02:38:53.189Z,0.82
2022-11-19T02:41:38.991Z,0.77
2022-11-19T02:44:47.137Z,0.75
2022-11-19T02:47:25.632Z,0.80
2022-11-19T02:49:59.151Z,0.78
2022-11-19T02:52:28.770Z,0.78
2022-11-19T02:54:58.315Z,0.79
2022-11-19T02:57:27.300Z,0.81
2022-11-19T03:00:23.047Z,0.83
2022-11-19T03:03:19.569Z,0.85
2022-11-19T03:05:54.319Z,0.83
2022-11-19T03:08:24.844Z,0.81
2022-11-19T03:11:16.063Z,0.84
2022-11-19T03:14:16.368Z,0.86
2022-11-19T03:16:51.392Z,0.88
2022-11-19T03:19:40.286Z,0.87
2022-11-19T03:22:27.271Z,0.89
2022-11-19T03:25:24.545Z,0.89
2022-11-19T03:28:06.997Z,0.87
2022-11-19T03:30:38.227Z,0.86
2022-11-19T03:33:33.908Z,0.81
2022-11-19T03:36:09.262Z,0.78
2022-11-19T03:38:46.393Z,0.76
2022-11-19T03:41:17.754Z,0.77
2022-11-19T03:43:52.376Z,0.80
2022-11-19T03:46:22.791Z,0.81
2022-11-19T03:48:53.779Z,0.81
2022-11-19T03:51:28.462Z,0.82
2022-11-19T03:53:57.600Z,0.82
2022-11-19T03:56:27.358Z,0.86
2022-11-19T03:58:58.186Z,0.88
2022-11-19T04:01:27.546Z,0.88
2022-11-19T04:04:16.542Z,0.89
2022-11-19T04:06:47.000Z,0.92
2022-11-19T04:09:18.817Z,0.93
2022-11-19T04:14:21.110Z,0.94
2022-11-19T04:16:52.248Z,0.95
2022-11-19T04:19:21.836Z,0.97
2022-11-19T04:21:50.726Z,0.94
2022-11-19T04:24:21.246Z,0.91
2022-11-19T04:26:51.104Z,0.89
2022-11-19T04:29:21.881Z,0.87
2022-11-19T04:31:51.218Z,0.87
2022-11-19T04:34:20.626Z,0.92
2022-11-19T04:36:50.745Z,0.92
2022-11-19T04:39:20.090Z,0.90
2022-11-19T04:41:50.802Z,0.90
2022-11-19T04:44:23.139Z,0.85
2022-11-19T04:46:53.538Z,0.83
2022-11-19T04:49:22.989Z,0.83
2022-11-19T04:51:52.837Z,0.85
2022-11-19T04:54:22.653Z,0.85
2022-11-19T04:56:51.468Z,0.86
2022-11-19T04:59:21.974Z,0.87
2022-11-19T05:01:53.011Z,0.87
2022-11-19T05:04:23.905Z,0.91
2022-11-19T05:06:53.750Z,0.94
2022-11-19T05:09:22.902Z,0.95
2022-11-19T05:11:52.398Z,0.95
2022-11-19T05:14:23.681Z,0.96
2022-11-19T05:16:52.067Z,1.00
2022-11-19T05:19:22.090Z,1.02
2022-11-19T05:21:52.780Z,1.05
2022-11-19T05:24:21.558Z,1.07
2022-11-19T05:26:51.025Z,1.09
2022-11-19T05:29:21.198Z,1.09
2022-11-19T05:31:51.427Z,1.10
2022-11-19T05:34:21.528Z,1.07
2022-11-19T05:36:50.999Z,1.04
2022-11-19T05:39:22.644Z,1.03
2022-11-19T05:41:52.657Z,1.03
2022-11-19T05:44:21.958Z,1.02
2022-11-19T05:46:51.563Z,1.01
2022-11-19T05:49:20.841Z,1.02
2022-11-19T05:51:49.817Z,1.00
2022-11-19T05:54:19.068Z,0.98
2022-11-19T05:56:49.616Z,0.99
2022-11-19T05:59:20.709Z,1.01
2022-11-19T06:01:50.933Z,1.02
2022-11-19T06:04:20.285Z,1.04
2022-11-19T06:06:51.021Z,1.06
2022-11-19T06:09:21.314Z,1.10
2022-11-19T06:11:51.152Z,1.14
2022-11-19T06:14:22.785Z,1.13
2022-11-19T06:16:53.664Z,1.13
2022-11-19T06:19:23.806Z,1.13
2022-11-19T06:21:53.376Z,1.13
2022-11-19T06:24:22.457Z,1.13
2022-11-19T06:26:52.611Z,1.12
2022-11-19T06:29:21.900Z,1.09
2022-11-19T06:31:52.232Z,1.08
2022-11-19T06:34:22.956Z,1.07
2022-11-19T06:36:53.556Z,1.08
2022-11-19T06:39:23.101Z,1.09
2022-11-19T06:41:54.760Z,1.09
2022-11-19T06:44:24.727Z,1.10
2022-11-19T06:46:54.890Z,1.10
2022-11-19T06:49:26.030Z,1.11
2022-11-19T06:51:55.968Z,1.13
2022-11-19T06:54:25.384Z,1.14
2022-11-19T06:56:54.586Z,1.16
2022-11-19T06:59:24.608Z,1.15
2022-11-19T07:02:20.338Z,1.13
2022-11-19T07:04:47.022Z,1.14
2022-11-19T07:07:17.288Z,1.14
2022-11-19T07:09:47.187Z,1.17
2022-11-19T07:12:17.625Z,1.19
2022-11-19T07:14:48.932Z,1.21
2022-11-19T07:17:19.291Z,1.24
2022-11-19T07:19:49.601Z,1.27
2022-11-19T07:22:20.215Z,1.30
2022-11-19T07:24:49.653Z,1.29
2022-11-19T07:27:21.085Z,1.28
2022-11-19T07:29:50.161Z,1.28
2022-11-19T07:32:20.078Z,1.35
2022-11-19T07:34:49.213Z,1.38
2022-11-19T07:37:22.125Z,1.40
2022-11-19T07:39:52.760Z,1.42
2022-11-19T07:42:41.012Z,1.41
2022-11-19T07:45:10.998Z,1.42
2022-11-19T07:47:42.325Z,1.42
2022-11-19T07:50:11.872Z,1.37
2022-11-19T07:52:41.551Z,1.39
2022-11-19T07:55:11.184Z,1.41
2022-11-19T07:57:40.842Z,1.40
2022-11-19T08:00:12.530Z,1.37
2022-11-19T08:02:42.009Z,1.36
2022-11-19T08:05:13.146Z,1.35
2022-11-19T08:07:43.032Z,1.35
2022-11-19T08:10:14.827Z,1.34
2022-11-19T08:12:46.857Z,1.39
2022-11-19T08:15:17.254Z,1.39
2022-11-19T08:18:07.246Z,1.40
2022-11-19T08:20:38.463Z,1.40
2022-11-19T08:23:09.154Z,1.37
2022-11-19T08:25:41.765Z,1.39
2022-11-19T08:28:12.295Z,1.39
2022-11-19T08:30:42.182Z,1.36
2022-11-19T08:33:12.433Z,1.36
2022-11-19T08:35:44.177Z,1.36
2022-11-19T08:38:14.033Z,1.28
2022-11-19T08:40:44.097Z,1.27
2022-11-19T08:43:14.538Z,1.30
2022-11-19T08:45:52.488Z,1.32
2022-11-19T08:48:22.347Z,1.32
2022-11-19T08:50:52.894Z,1.27
2022-11-19T08:53:22.013Z,1.28
2022-11-19T08:55:52.005Z,1.28
2022-11-19T08:58:21.245Z,1.31
2022-11-19T09:00:51.258Z,1.31
2022-11-19T09:03:20.148Z,1.31
2022-11-19T09:05:49.015Z,1.29
2022-11-19T09:08:18.294Z,1.25
2022-11-19T09:10:47.618Z,1.21
2022-11-19T09:13:18.270Z,1.22
2022-11-19T09:15:51.182Z,1.26
2022-11-19T09:18:20.614Z,1.29
2022-11-19T09:20:55.558Z,1.31
2022-11-19T09:23:26.006Z,1.31
2022-11-19T09:25:58.612Z,1.31
2022-11-19T09:28:27.983Z,1.37
2022-11-19T09:31:06.413Z,1.38
2022-11-19T09:33:38.326Z,1.40
2022-11-19T09:36:09.351Z,1.44
2022-11-19T09:38:40.644Z,1.45
2022-11-19T09:41:50.234Z,1.47
2022-11-19T09:44:30.955Z,1.45
2022-11-19T09:47:27.890Z,1.45
2022-11-19T09:50:18.761Z,1.46
2022-11-19T09:52:57.204Z,1.45
2022-11-19T09:55:41.292Z,1.43
2022-11-19T09:58:33.280Z,1.44
2022-11-19T10:01:02.551Z,1.42
2022-11-19T10:03:33.880Z,1.44
2022-11-19T10:06:27.601Z,1.40
2022-11-19T10:09:42.298Z,1.40
2022-11-19T10:12:56.729Z,1.38
2022-11-19T10:15:37.948Z,1.37
2022-11-19T10:18:21.594Z,1.37
2022-11-19T10:21:14.395Z,1.37
2022-11-19T10:24:15.289Z,1.37
2022-11-19T10:26:49.547Z,1.35
2022-11-19T10:29:22.226Z,1.35
2022-11-19T10:31:52.869Z,1.32
2022-11-19T10:34:31.554Z,1.23
2022-11-19T10:37:14.155Z,1.20
2022-11-19T10:39:57.947Z,1.19
2022-11-19T10:42:38.988Z,1.21
2022-11-19T10:45:27.333Z,1.21
2022-11-19T10:48:13.496Z,1.19
2022-11-19T10:50:42.883Z,1.17
2022-11-19T10:53:36.257Z,1.17
2022-11-19T10:56:13.684Z,1.17
2022-11-19T10:58:56.991Z,1.15
2022-11-19T11:01:31.894Z,1.13
2022-11-19T11:04:23.266Z,1.12
2022-11-19T11:07:03.052Z,1.09
2022-11-19T11:09:44.893Z,1.08
2022-11-19T11:12:39.144Z,1.11
2022-11-19T11:15:16.363Z,1.17
2022-11-19T11:17:48.094Z,1.18
2022-11-19T11:20:22.896Z,1.18
2022-11-19T11:23:08.391Z,1.18
2022-11-19T11:25:38.800Z,1.17
2022-11-19T11:28:16.507Z,1.11
2022-11-19T11:30:57.793Z,1.10
2022-11-19T11:33:35.143Z,1.09
2022-11-19T11:36:13.438Z,1.05
2022-11-19T11:38:44.702Z,1.05
2022-11-19T11:42:03.372Z,1.01
2022-11-19T11:44:09.993Z,0.99
2022-11-19T11:46:53.353Z,1.15
2022-11-19T11:49:39.763Z,1.15
2022-11-19T11:52:28.243Z,1.06
2022-11-19T11:55:04.276Z,0.98
2022-11-19T11:57:39.587Z,0.90
2022-11-19T12:00:36.729Z,0.87
2022-11-19T12:03:14.178Z,0.91
2022-11-19T12:06:07.841Z,0.88
2022-11-19T12:08:53.878Z,0.78
2022-11-19T12:11:32.106Z,0.76
2022-11-19T12:14:12.305Z,0.75
2022-11-19T12:16:50.644Z,0.73
2022-11-19T12:19:26.265Z,0.72
2022-11-19T12:22:07.521Z,0.74
2022-11-19T12:25:00.956Z,0.70
2022-11-19T12:27:44.705Z,0.69
2022-11-19T12:30:23.897Z,0.72
2022-11-19T12:33:20.524Z,0.75
2022-11-19T12:36:13.481Z,0.74
2022-11-19T12:39:09.542Z,0.67
2022-11-19T12:42:03.129Z,0.59
2022-11-19T12:44:56.583Z,0.56
2022-11-19T12:47:45.686Z,0.53
2022-11-19T12:50:31.751Z,0.55
2022-11-19T12:53:34.448Z,0.57
2022-11-19T12:56:48.382Z,0.59
2022-11-19T12:59:29.236Z,0.63
2022-11-19T13:01:58.546Z,0.64
2022-11-19T13:04:40.958Z,0.64
2022-11-19T13:07:23.562Z,0.67
2022-11-19T13:10:18.549Z,0.68
2022-11-19T13:12:54.876Z,0.70
2022-11-19T13:15:32.290Z,0.67
2022-11-19T13:18:02.639Z,0.64
2022-11-19T13:20:49.061Z,0.66
2022-11-19T13:23:40.633Z,0.64
2022-11-19T13:26:16.537Z,0.67
2022-11-19T13:29:15.190Z,0.66
2022-11-19T13:31:49.351Z,0.63
2022-11-19T13:34:26.521Z,0.62
2022-11-19T13:37:06.613Z,0.60
2022-11-19T13:39:43.842Z,0.59
2022-11-19T13:42:31.538Z,0.62
2022-11-19T13:45:00.399Z,0.66
2022-11-19T13:47:58.291Z,0.62
2022-11-19T13:50:36.350Z,0.66
2022-11-19T13:53:16.903Z,0.67
2022-11-19T13:55:46.327Z,0.64
2022-11-19T13:58:23.018Z,0.63
2022-11-19T14:01:07.926Z,0.63
2022-11-19T14:04:13.116Z,0.64
2022-11-19T14:07:03.645Z,0.66
2022-11-19T14:10:02.930Z,0.60
2022-11-19T14:12:44.200Z,0.56
2022-11-19T14:15:58.500Z,0.57
2022-11-19T14:18:54.368Z,0.55
2022-11-19T14:21:51.252Z,0.55
2022-11-19T14:24:51.154Z,0.57
2022-11-19T14:27:26.168Z,0.53
2022-11-19T14:30:04.346Z,0.49
2022-11-19T14:32:47.046Z,0.47
2022-11-19T14:35:25.095Z,0.47
2022-11-19T14:37:59.720Z,0.47
2022-11-19T14:40:30.941Z,0.46
2022-11-19T14:43:25.994Z,0.45
2022-11-19T14:46:12.290Z,0.44
2022-11-19T14:48:49.103Z,0.46
2022-11-19T14:51:36.166Z,0.52
2022-11-19T14:54:19.311Z,0.53
2022-11-19T14:57:01.276Z,0.53
2022-11-19T14:59:35.074Z,0.54
2022-11-19T15:02:16.015Z,0.51
2022-11-19T15:04:55.668Z,0.51
2022-11-19T15:07:43.379Z,0.51
2022-11-19T15:10:17.246Z,0.49
2022-11-19T15:12:49.233Z,0.49
2022-11-19T15:15:41.558Z,0.45
2022-11-19T15:18:44.406Z,0.37
2022-11-19T15:21:54.734Z,0.33
2022-11-19T15:24:52.018Z,0.29
2022-11-19T15:27:58.827Z,0.27
2022-11-19T15:30:44.805Z,0.26
2022-11-19T15:33:19.050Z,0.31
2022-11-19T15:36:28.712Z,0.33
2022-11-19T15:39:33.245Z,0.30
2022-11-19T15:42:04.634Z,0.23
2022-11-19T15:44:42.997Z,0.23
2022-11-19T15:47:24.881Z,0.23
2022-11-19T15:49:55.191Z,0.24
2022-11-19T15:52:31.772Z,0.25
2022-11-19T15:55:20.457Z,0.26
2022-11-19T15:57:53.689Z,0.27
2022-11-19T16:00:22.072Z,0.27
2022-11-19T16:02:51.957Z,0.30
2022-11-19T19:05:02.912Z,0.25
2022-11-19T19:07:33.839Z,0.22
2022-11-19T19:10:06.293Z,0.24
2022-11-19T19:12:36.216Z,0.29
2022-11-19T19:15:06.716Z,0.33
2022-11-19T19:17:37.167Z,0.34
2022-11-19T19:20:07.570Z,0.35
2022-11-19T19:22:37.796Z,0.34
2022-11-19T19:25:09.029Z,0.33
2022-11-19T19:27:38.033Z,0.32
2022-11-19T19:30:09.486Z,0.30
2022-11-19T19:32:39.462Z,0.27
2022-11-19T19:35:10.196Z,0.26
2022-11-19T19:37:42.013Z,0.27
2022-11-19T19:40:13.323Z,0.25
2022-11-19T19:42:42.507Z,0.25
2022-11-19T19:45:12.278Z,0.26
2022-11-19T19:47:42.565Z,0.25
2022-11-19T19:50:13.893Z,0.26
2022-11-19T19:52:44.138Z,0.26
2022-11-19T19:55:14.531Z,0.27
2022-11-19T19:57:45.946Z,0.29
2022-11-19T20:00:16.998Z,0.27
2022-11-19T20:02:50.640Z,0.24
2022-11-19T20:05:22.223Z,0.22
2022-11-19T20:07:52.244Z,0.19
2022-11-19T20:10:22.295Z,0.23
2022-11-19T20:13:11.136Z,0.23
2022-11-19T20:15:41.488Z,0.24
2022-11-19T20:18:11.502Z,0.25
2022-11-19T20:20:40.991Z,0.23
2022-11-19T20:23:10.625Z,0.24
2022-11-19T20:25:39.838Z,0.23
2022-11-19T20:28:11.175Z,0.20
2022-11-19T20:30:40.429Z,0.15
2022-11-19T20:33:11.121Z,0.08
2022-11-19T20:35:42.305Z,0.07
2022-11-19T20:38:12.397Z,0.10
2022-11-19T20:40:43.266Z,0.12
2022-11-19T20:43:30.719Z,0.11
2022-11-19T20:46:09.525Z,0.10
2022-11-19T20:48:39.503Z,0.08
2022-11-19T20:51:09.277Z,0.07
2022-11-19T20:53:40.548Z,0.07
2022-11-19T20:56:09.827Z,0.08
2022-11-19T20:58:40.351Z,0.07
2022-11-19T21:01:10.476Z,0.07
2022-11-19T21:03:40.415Z,0.07
2022-11-19T21:06:13.097Z,0.05
2022-11-19T21:08:45.042Z,0.01
2022-11-19T21:11:15.464Z,-0.01
2022-11-19T21:13:44.388Z,-0.03
2022-11-19T21:16:17.615Z,-0.05
2022-11-19T21:18:48.080Z,-0.05
2022-11-19T21:21:19.312Z,-0.02
2022-11-19T21:23:49.896Z,-0.01
2022-11-19T21:26:23.337Z,0.03
2022-11-19T21:28:56.266Z,-0.01
2022-11-19T21:31:45.140Z,-0.01
2022-11-19T21:34:18.877Z,-0.02
2022-11-19T21:36:48.926Z,-0.01
2022-11-19T21:39:19.256Z,-0.02
2022-11-19T21:41:51.389Z,-0.05
2022-11-19T21:44:22.139Z,-0.11
2022-11-19T21:46:52.499Z,-0.18
2022-11-19T21:49:23.315Z,-0.22
2022-11-19T21:51:55.451Z,-0.25
2022-11-19T21:54:25.888Z,-0.27
2022-11-19T21:56:55.784Z,-0.28
2022-11-19T21:59:27.089Z,-0.30
2022-11-19T22:01:57.570Z,-0.28
2022-11-19T22:04:28.705Z,-0.26
2022-11-19T22:07:00.306Z,-0.23
2022-11-19T22:09:29.817Z,-0.23
2022-11-19T22:12:01.508Z,-0.24
2022-11-19T22:14:32.153Z,-0.30
2022-11-19T22:17:01.770Z,-0.33
2022-11-19T22:19:31.600Z,-0.37
2022-11-19T22:22:01.789Z,-0.43
2022-11-19T22:24:31.204Z,-0.46
2022-11-19T22:27:00.496Z,-0.51
2022-11-19T22:29:31.387Z,-0.57
2022-11-19T22:32:01.092Z,-0.58
2022-11-19T22:34:30.212Z,-0.58
2022-11-19T22:36:59.429Z,-0.61
2022-11-19T22:39:34.763Z,-0.62
2022-11-19T22:42:11.640Z,-0.61
2022-11-19T22:44:41.486Z,-0.64
2022-11-19T22:47:11.070Z,-0.71
2022-11-19T22:49:40.784Z,-0.73
2022-11-19T22:52:10.263Z,-0.71
2022-11-19T22:54:41.836Z,-0.70
2022-11-19T22:57:11.135Z,-0.73
2022-11-19T22:59:41.398Z,-0.77
2022-11-19T23:02:10.547Z,-0.85
2022-11-19T23:04:41.451Z,-0.96
2022-11-19T23:07:10.349Z,-1.05
2022-11-19T23:09:39.982Z,-1.12
2022-11-19T23:12:28.358Z,-1.18
2022-11-19T23:14:58.815Z,-1.25
2022-11-19T23:17:29.349Z,-1.34
2022-11-19T23:20:04.231Z,-1.41
2022-11-19T23:22:29.253Z,-1.46
2022-11-19T23:24:59.383Z,-1.51
2022-11-19T23:27:28.348Z,-1.57
2022-11-19T23:29:57.863Z,-1.64
2022-11-19T23:32:26.884Z,-1.65
2022-11-19T23:34:55.896Z,-1.64
2022-11-19T23:37:24.951Z,-1.65
2022-11-19T23:39:54.237Z,-1.64
2022-11-19T23:42:23.211Z,-1.62
2022-11-19T23:44:52.603Z,-1.59
2022-11-19T23:47:21.921Z,-1.60
2022-11-19T23:49:51.961Z,-1.62
2022-11-19T23:52:20.941Z,-1.62
2022-11-19T23:54:51.000Z,-1.63
2022-11-19T23:57:20.142Z,-1.66
2022-11-19T23:59:49.123Z,-1.67
